createdAt,value
2022-08-28T00:01:23.911Z,566.92
2022-08-28T00:03:50.621Z,569.92
2022-08-28T00:06:18.806Z,572.65
2022-08-28T00:08:46.561Z,597.63
2022-08-28T00:11:21.068Z,583.53
2022-08-28T00:13:48.549Z,592.05
2022-08-28T00:16:15.440Z,592.75
2022-08-28T00:18:42.402Z,594.17
2022-08-28T00:21:10.063Z,597.58
2022-08-28T00:23:42.852Z,599.38
2022-08-28T00:26:31.749Z,591.35
2022-08-28T00:28:58.520Z,589.80
2022-08-28T00:31:25.302Z,594.10
2022-08-28T00:33:52.054Z,590.35
2022-08-28T00:36:19.590Z,591.45
2022-08-28T00:38:46.203Z,593.08
2022-08-28T00:41:13.186Z,592.57
2022-08-28T00:43:43.311Z,589.60
2022-08-28T00:46:14.460Z,591.60
2022-08-28T00:48:41.497Z,589.50
2022-08-28T00:51:28.638Z,586.38
2022-08-28T00:53:58.955Z,584.83
2022-08-28T00:56:27.560Z,584.05
2022-08-28T00:58:56.795Z,585.42
2022-08-28T01:01:24.271Z,583.08
2022-08-28T01:03:51.060Z,580.97
2022-08-28T01:06:20.516Z,583.80
2022-08-28T01:08:50.518Z,589.05
2022-08-28T01:11:21.618Z,591.20
2022-08-28T01:13:49.714Z,590.50
2022-08-28T01:16:19.231Z,587.27
2022-08-28T01:18:46.879Z,585.40
2022-08-28T01:21:22.258Z,588.88
2022-08-28T01:24:04.967Z,593.47
2022-08-28T01:26:32.371Z,592.95
2022-08-28T01:29:00.685Z,596.70
2022-08-28T01:31:31.036Z,595.22
2022-08-28T01:33:59.292Z,593.83
2022-08-28T01:36:26.422Z,593.57
2022-08-28T01:38:58.994Z,592.42
2022-08-28T01:41:25.686Z,587.42
2022-08-28T01:43:53.805Z,588.38
2022-08-28T01:46:21.014Z,589.67
2022-08-28T01:48:48.232Z,588.00
2022-08-28T01:51:15.157Z,590.33
2022-08-28T01:53:45.006Z,587.45
2022-08-28T01:56:15.090Z,587.72
2022-08-28T01:58:42.227Z,589.30
2022-08-28T02:01:11.152Z,587.65
2022-08-28T02:03:38.674Z,592.25
2022-08-28T02:06:06.072Z,593.53
2022-08-28T02:08:35.320Z,592.33
2022-08-28T02:11:02.290Z,592.33
2022-08-28T02:13:28.987Z,591.53
2022-08-28T02:15:57.022Z,593.90
2022-08-28T02:18:26.074Z,595.28
2022-08-28T02:20:52.778Z,595.20
2022-08-28T02:23:19.466Z,598.83
2022-08-28T02:25:47.688Z,596.42
2022-08-28T02:28:17.658Z,599.63
2022-08-28T02:30:44.727Z,596.37
2022-08-28T02:33:11.418Z,597.95
2022-08-28T02:35:40.235Z,602.75
2022-08-28T02:38:07.066Z,602.50
2022-08-28T02:40:33.889Z,603.55
2022-08-28T02:43:00.578Z,602.17
2022-08-28T02:45:30.210Z,599.75
2022-08-28T02:47:57.352Z,599.20
2022-08-28T02:50:24.758Z,599.20
2022-08-28T02:52:51.901Z,600.63
2022-08-28T02:55:19.738Z,587.97
2022-08-28T02:57:47.718Z,586.83
2022-08-28T03:00:19.906Z,586.08
2022-08-28T03:02:47.314Z,582.85
2022-08-28T03:05:17.326Z,583.75
2022-08-28T03:07:44.216Z,585.45
2022-08-28T03:10:11.319Z,582.95
2022-08-28T03:12:38.281Z,587.50
2022-08-28T03:15:07.516Z,587.88
2022-08-28T03:17:35.051Z,561.80
2022-08-28T03:20:01.742Z,584.67
2022-08-28T03:22:46.861Z,583.87
2022-08-28T03:25:13.616Z,589.70
2022-08-28T03:27:40.243Z,588.63
2022-08-28T03:30:07.950Z,588.45
2022-08-28T03:32:35.228Z,596.78
2022-08-28T03:35:03.316Z,596.80
2022-08-28T03:37:32.740Z,595.53
2022-08-28T03:40:00.640Z,604.47
2022-08-28T03:42:27.397Z,602.80
2022-08-28T03:44:54.445Z,604.45
2022-08-28T03:47:21.063Z,602.22
2022-08-28T03:49:53.658Z,606.13
2022-08-28T03:52:20.591Z,605.80
2022-08-28T03:54:48.062Z,604.42
2022-08-28T03:57:22.392Z,602.78
2022-08-28T03:59:51.415Z,602.50
2022-08-28T04:02:20.423Z,611.08
2022-08-28T04:04:48.899Z,607.97
2022-08-28T04:07:16.136Z,613.85
2022-08-28T04:09:43.080Z,606.33
2022-08-28T04:12:10.293Z,605.00
2022-08-28T04:14:37.446Z,604.30
2022-08-28T04:17:05.494Z,602.45
2022-08-28T04:19:34.141Z,603.47
2022-08-28T04:22:01.264Z,596.72
2022-08-28T04:24:27.986Z,597.40
2022-08-28T04:26:54.682Z,597.58
2022-08-28T04:29:22.947Z,598.95
2022-08-28T04:31:50.416Z,597.58
2022-08-28T04:34:17.928Z,599.53
2022-08-28T04:36:44.877Z,598.47
2022-08-28T04:39:11.781Z,599.72
2022-08-28T04:41:38.789Z,595.80
2022-08-28T04:44:06.493Z,590.50
2022-08-28T04:46:33.325Z,594.75
2022-08-28T04:49:00.693Z,593.53
2022-08-28T04:51:28.401Z,588.38
2022-08-28T04:53:55.135Z,583.60
2022-08-28T04:56:21.836Z,583.65
2022-08-28T04:58:48.501Z,583.15
2022-08-28T05:01:21.049Z,587.03
2022-08-28T05:03:52.658Z,590.03
2022-08-28T05:06:19.300Z,595.67
2022-08-28T05:08:48.028Z,589.75
2022-08-28T05:11:33.762Z,588.63
2022-08-28T05:14:11.577Z,570.67
2022-08-28T05:16:46.567Z,568.35
2022-08-28T05:19:14.731Z,571.70
2022-08-28T05:21:42.590Z,562.55
2022-08-28T05:24:09.880Z,568.33
2022-08-28T05:26:38.953Z,563.15
2022-08-28T05:29:08.023Z,569.88
2022-08-28T05:31:35.053Z,566.95
2022-08-28T05:34:02.964Z,569.45
2022-08-28T05:36:34.983Z,575.58
2022-08-28T05:39:05.287Z,563.10
2022-08-28T05:41:34.344Z,559.63
2022-08-28T05:44:04.714Z,570.22
2022-08-28T05:46:31.946Z,572.90
2022-08-28T05:49:00.440Z,575.53
2022-08-28T05:51:28.078Z,569.50
2022-08-28T05:53:57.555Z,570.40
2022-08-28T05:56:29.624Z,561.75
2022-08-28T05:58:57.632Z,569.47
2022-08-28T06:01:33.621Z,566.97
2022-08-28T06:04:02.528Z,576.45
2022-08-28T06:06:34.288Z,569.53
2022-08-28T06:09:11.748Z,577.20
2022-08-28T06:11:40.468Z,584.78
2022-08-28T06:14:13.598Z,578.90
2022-08-28T06:16:47.220Z,577.08
2022-08-28T06:19:14.430Z,585.20
2022-08-28T06:21:41.947Z,578.15
2022-08-28T06:24:10.822Z,578.40
2022-08-28T06:26:38.109Z,560.42
2022-08-28T06:29:08.535Z,578.83
2022-08-28T06:31:35.811Z,564.63
2022-08-28T06:34:04.508Z,564.00
2022-08-28T06:36:33.787Z,565.97
2022-08-28T06:39:02.719Z,563.53
2022-08-28T06:41:34.605Z,561.20
2022-08-28T06:44:02.930Z,560.47
2022-08-28T06:46:30.516Z,558.72
2022-08-28T06:48:57.338Z,558.97
2022-08-28T06:51:25.061Z,561.33
2022-08-28T06:53:52.470Z,555.60
2022-08-28T06:56:26.005Z,564.95
2022-08-28T06:58:58.075Z,561.30
2022-08-28T07:01:31.472Z,554.97
2022-08-28T07:04:08.612Z,552.78
2022-08-28T07:06:38.071Z,556.75
2022-08-28T07:09:07.195Z,548.80
2022-08-28T07:11:37.319Z,542.55
2022-08-28T07:14:04.827Z,546.22
2022-08-28T07:16:35.035Z,530.78
2022-08-28T07:19:04.767Z,529.90
2022-08-28T07:21:38.761Z,515.08
2022-08-28T07:24:10.439Z,520.80
2022-08-28T07:26:40.813Z,482.95
2022-08-28T07:29:10.867Z,512.50
2022-08-28T07:31:44.046Z,510.63
2022-08-28T07:34:13.515Z,497.65
2022-08-28T07:36:41.099Z,499.70
2022-08-28T07:39:09.044Z,510.00
2022-08-28T07:41:39.093Z,496.80
2022-08-28T07:44:26.857Z,507.93
2022-08-28T07:46:55.911Z,504.40
2022-08-28T07:49:23.542Z,494.83
2022-08-28T07:51:56.836Z,469.40
2022-08-28T07:54:23.856Z,474.92
2022-08-28T07:56:50.984Z,485.33
2022-08-28T07:59:19.402Z,465.37
2022-08-28T08:01:49.081Z,466.13
2022-08-28T08:04:16.612Z,449.70
2022-08-28T08:06:44.927Z,448.88
2022-08-28T08:09:17.996Z,446.63
2022-08-28T08:11:45.059Z,439.80
2022-08-28T08:14:15.813Z,425.33
2022-08-28T08:16:44.860Z,399.83
2022-08-28T08:19:20.291Z,384.58
2022-08-28T08:21:53.300Z,384.90
2022-08-28T08:24:26.684Z,386.85
2022-08-28T08:27:00.258Z,401.83
2022-08-28T08:29:31.419Z,386.33
2022-08-28T08:32:06.866Z,407.30
2022-08-28T08:34:36.716Z,400.20
2022-08-28T08:37:05.469Z,381.52
2022-08-28T08:39:33.839Z,374.83
2022-08-28T08:42:04.192Z,378.42
2022-08-28T08:44:40.828Z,378.80
2022-08-28T08:47:19.434Z,370.88
2022-08-28T08:49:57.112Z,358.35
2022-08-28T08:52:38.808Z,348.35
2022-08-28T08:55:23.066Z,359.02
2022-08-28T08:57:59.370Z,353.23
2022-08-28T09:00:26.575Z,379.23
2022-08-28T09:03:09.481Z,379.67
2022-08-28T09:05:46.699Z,382.42
2022-08-28T09:08:25.198Z,397.60
2022-08-28T09:11:00.765Z,389.90
2022-08-28T09:13:51.630Z,400.93
2022-08-28T09:16:29.346Z,394.30
2022-08-28T09:18:58.290Z,400.33
2022-08-28T09:21:29.392Z,405.98
2022-08-28T09:23:57.598Z,404.02
2022-08-28T09:26:25.471Z,404.75
2022-08-28T09:29:20.768Z,407.27
2022-08-28T09:31:50.425Z,387.40
2022-08-28T09:34:27.678Z,376.20
2022-08-28T09:36:56.334Z,377.02
2022-08-28T09:39:30.576Z,393.33
2022-08-28T09:42:40.896Z,397.90
2022-08-28T09:45:21.416Z,387.83
2022-08-28T09:47:56.673Z,396.50
2022-08-28T09:50:31.327Z,389.67
2022-08-28T09:53:08.831Z,405.35
2022-08-28T09:56:25.050Z,399.48
2022-08-28T09:59:02.846Z,405.47
2022-08-28T10:01:45.183Z,422.52
2022-08-28T10:04:20.891Z,429.98
2022-08-28T10:07:00.685Z,423.63
2022-08-28T10:09:46.845Z,426.55
2022-08-28T10:12:35.961Z,437.13
2022-08-28T10:15:30.651Z,419.13
2022-08-28T10:18:21.498Z,397.50
2022-08-28T10:21:36.015Z,404.20
2022-08-28T10:24:28.731Z,362.85
2022-08-28T10:27:21.346Z,339.15
2022-08-28T10:30:20.750Z,363.25
2022-08-28T10:33:11.902Z,378.47
2022-08-28T10:36:03.987Z,386.95
2022-08-28T10:38:30.827Z,369.75
2022-08-28T10:41:35.733Z,367.02
2022-08-28T10:44:05.316Z,370.55
2022-08-28T10:46:42.570Z,370.27
2022-08-28T10:49:30.034Z,344.10
2022-08-28T10:52:05.207Z,374.88
2022-08-28T10:54:53.203Z,365.63
2022-08-28T10:57:24.229Z,347.85
2022-08-28T10:59:54.069Z,365.92
2022-08-28T11:02:24.745Z,377.50
2022-08-28T11:04:58.208Z,382.70
2022-08-28T11:07:54.525Z,387.25
2022-08-28T11:10:23.745Z,396.58
2022-08-28T11:12:52.598Z,400.70
2022-08-28T11:15:36.456Z,401.25
2022-08-28T11:18:16.056Z,410.53
2022-08-28T11:21:09.963Z,400.25
2022-08-28T11:23:43.510Z,408.10
2022-08-28T11:26:14.746Z,411.75
2022-08-28T11:28:47.533Z,405.90
2022-08-28T11:31:14.257Z,416.05
2022-08-28T11:33:56.341Z,407.52
2022-08-28T11:36:23.001Z,427.83
2022-08-28T11:38:52.286Z,410.87
2022-08-28T11:41:22.414Z,409.75
2022-08-28T11:43:52.471Z,399.45
2022-08-28T11:46:33.784Z,396.80
2022-08-28T11:49:03.620Z,394.80
2022-08-28T11:51:48.686Z,387.88
2022-08-28T11:54:50.689Z,388.10
2022-08-28T11:57:20.280Z,385.90
2022-08-28T11:59:55.906Z,394.92
2022-08-28T12:02:46.965Z,377.10
2022-08-28T12:05:16.774Z,374.55
2022-08-28T12:07:51.396Z,357.80
2022-08-28T12:10:27.468Z,348.60
2022-08-28T12:13:39.015Z,363.73
2022-08-28T12:16:07.642Z,351.45
2022-08-28T12:18:59.070Z,337.92
2022-08-28T12:21:28.833Z,301.48
2022-08-28T12:24:05.364Z,310.98
2022-08-28T12:26:39.920Z,309.80
2022-08-28T12:29:34.878Z,315.75
2022-08-28T12:32:18.639Z,319.55
2022-08-28T12:34:53.140Z,317.55
2022-08-28T12:37:24.190Z,332.30
2022-08-28T12:39:51.783Z,320.90
2022-08-28T12:42:20.247Z,339.63
2022-08-28T12:44:51.672Z,336.73
2022-08-28T12:47:22.844Z,350.88
2022-08-28T12:49:49.690Z,356.50
2022-08-28T12:52:21.037Z,362.13
2022-08-28T12:54:50.284Z,369.13
2022-08-28T12:57:20.515Z,361.65
2022-08-28T12:59:50.419Z,363.20
2022-08-28T13:02:34.224Z,342.60
2022-08-28T13:05:09.862Z,341.83
2022-08-28T13:07:49.610Z,329.23
2022-08-28T13:10:21.563Z,323.48
2022-08-28T13:13:05.870Z,300.97
2022-08-28T13:15:45.938Z,288.08
2022-08-28T13:18:44.459Z,301.15
2022-08-28T13:21:17.293Z,309.67
2022-08-28T13:24:01.704Z,322.27
2022-08-28T13:26:33.827Z,374.50
2022-08-28T13:29:26.880Z,385.58
2022-08-28T13:32:01.983Z,367.83
2022-08-28T13:34:31.518Z,354.38
2022-08-28T13:37:20.198Z,376.67
2022-08-28T13:39:47.750Z,334.65
2022-08-28T13:42:17.966Z,324.25
2022-08-28T13:44:56.767Z,304.17
2022-08-28T13:47:23.433Z,320.40
2022-08-28T13:49:50.126Z,310.00
2022-08-28T13:52:19.345Z,324.02
2022-08-28T13:54:46.843Z,321.00
2022-08-28T13:57:14.586Z,323.05
2022-08-28T13:59:41.776Z,337.58
2022-08-28T14:02:31.679Z,337.35
2022-08-28T14:04:58.720Z,359.58
2022-08-28T14:07:25.478Z,337.52
2022-08-28T14:09:56.286Z,320.13
2022-08-28T14:12:33.028Z,300.92
2022-08-28T14:15:03.489Z,308.70
2022-08-28T14:17:30.220Z,321.77
2022-08-28T14:19:58.872Z,295.23
2022-08-28T14:22:25.717Z,306.02
2022-08-28T14:24:55.973Z,300.88
2022-08-28T14:27:22.848Z,297.90
2022-08-28T14:29:49.629Z,337.40
2022-08-28T14:32:25.052Z,294.70
2022-08-28T14:34:52.986Z,303.58
2022-08-28T14:37:20.493Z,247.30
2022-08-28T14:39:48.279Z,240.45
2022-08-28T14:42:15.094Z,286.60
2022-08-28T14:44:50.510Z,274.40
2022-08-28T14:47:18.282Z,298.50
2022-08-28T14:49:44.986Z,290.20
2022-08-28T14:52:17.697Z,240.25
2022-08-28T14:54:44.464Z,266.55
2022-08-28T14:57:13.768Z,225.02
2022-08-28T14:59:40.843Z,212.15
2022-08-28T15:02:08.195Z,208.25
2022-08-28T15:04:37.855Z,188.27
2022-08-28T15:07:16.770Z,184.17
2022-08-28T15:09:43.821Z,233.55
2022-08-28T15:12:11.487Z,251.63
2022-08-28T15:14:39.578Z,240.63
2022-08-28T15:17:08.000Z,248.07
2022-08-28T15:19:36.990Z,221.82
2022-08-28T15:22:06.419Z,240.95
2022-08-28T15:24:34.611Z,244.40
2022-08-28T15:27:06.511Z,237.30
2022-08-28T15:29:34.278Z,242.18
2022-08-28T15:32:00.998Z,265.33
2022-08-28T15:34:28.516Z,273.58
2022-08-28T15:36:56.782Z,273.90
2022-08-28T15:39:44.375Z,255.70
2022-08-28T15:42:11.968Z,266.83
2022-08-28T15:44:39.280Z,247.40
2022-08-28T15:47:07.056Z,238.93
2022-08-28T15:49:43.692Z,239.05
2022-08-28T15:52:19.006Z,262.27
2022-08-28T15:54:46.023Z,244.55
2022-08-28T15:57:12.799Z,258.88
2022-08-28T15:59:48.815Z,289.15
2022-08-28T16:02:23.486Z,318.65
2022-08-28T16:04:53.574Z,353.33
2022-08-28T16:07:22.162Z,386.67
2022-08-28T16:09:49.156Z,387.60
2022-08-28T16:12:17.303Z,421.00
2022-08-28T16:14:44.274Z,464.00
2022-08-28T16:17:11.568Z,447.42
2022-08-28T16:19:40.207Z,439.05
2022-08-28T16:22:07.705Z,429.45
2022-08-28T16:24:34.482Z,448.35
2022-08-28T16:27:02.585Z,450.67
2022-08-28T16:29:34.100Z,417.88
2022-08-28T16:32:02.360Z,419.77
2022-08-28T16:34:32.531Z,403.43
2022-08-28T16:37:00.204Z,412.92
2022-08-28T16:39:27.458Z,391.07
2022-08-28T16:41:56.587Z,371.67
2022-08-28T16:44:28.179Z,401.67
2022-08-28T16:46:55.586Z,403.65
2022-08-28T16:49:25.033Z,397.75
2022-08-28T16:51:51.673Z,389.30
2022-08-28T16:54:19.111Z,358.02
2022-08-28T16:56:46.800Z,350.70
2022-08-28T16:59:17.501Z,374.02
2022-08-28T17:01:44.821Z,383.63
2022-08-28T17:04:12.229Z,392.23
2022-08-28T17:06:39.973Z,370.98
2022-08-28T17:09:06.792Z,393.83
2022-08-28T17:11:33.617Z,394.92
2022-08-28T17:14:00.394Z,390.15
2022-08-28T17:16:29.721Z,389.00
2022-08-28T17:18:56.647Z,380.85
2022-08-28T17:21:42.403Z,374.25
2022-08-28T17:24:12.444Z,396.10
2022-08-28T17:26:40.626Z,395.95
2022-08-28T17:29:07.405Z,398.37
2022-08-28T17:31:41.227Z,414.80
2022-08-28T17:34:08.141Z,397.90
2022-08-28T17:36:39.730Z,399.98
2022-08-28T17:39:13.170Z,396.35
2022-08-28T17:41:40.727Z,401.52
2022-08-28T17:44:08.001Z,404.23
2022-08-28T17:46:38.111Z,423.43
2022-08-28T17:49:06.942Z,435.17
2022-08-28T17:51:43.413Z,441.58
2022-08-28T17:54:16.696Z,399.10
2022-08-28T17:56:43.847Z,367.83
2022-08-28T17:59:11.581Z,321.80
2022-08-28T18:01:42.098Z,282.50
2022-08-28T18:04:09.057Z,254.73
2022-08-28T18:06:36.016Z,273.17
2022-08-28T18:09:03.671Z,282.63
2022-08-28T18:11:30.402Z,271.02
2022-08-28T18:14:00.759Z,277.70
2022-08-28T18:16:31.385Z,275.08
2022-08-28T18:18:59.649Z,319.70
2022-08-28T18:21:26.618Z,342.48
2022-08-28T18:23:53.264Z,354.97
2022-08-28T18:26:20.388Z,366.83
2022-08-28T18:28:48.981Z,387.95
2022-08-28T18:31:21.156Z,374.55
2022-08-28T18:33:56.535Z,382.63
2022-08-28T18:36:34.191Z,399.55
2022-08-28T18:39:02.413Z,399.38
2022-08-28T18:41:41.631Z,384.48
2022-08-28T18:44:11.844Z,402.80
2022-08-28T18:46:41.649Z,386.67
2022-08-28T18:49:14.513Z,398.20
2022-08-28T18:51:47.943Z,384.48
2022-08-28T18:54:22.260Z,381.25
2022-08-28T18:56:50.401Z,376.58
2022-08-28T18:59:23.003Z,375.48
2022-08-28T19:01:49.839Z,369.15
2022-08-28T19:04:22.790Z,367.30
2022-08-28T19:06:54.667Z,405.23
2022-08-28T19:09:32.474Z,372.92
2022-08-28T19:12:01.430Z,387.45
2022-08-28T19:14:30.784Z,398.92
2022-08-28T19:16:57.430Z,397.10
2022-08-28T19:19:24.308Z,387.50
2022-08-28T19:21:54.014Z,389.85
2022-08-28T19:24:22.412Z,402.48
2022-08-28T19:26:49.012Z,398.90
2022-08-28T19:29:17.853Z,404.15
2022-08-28T19:31:44.689Z,396.75
2022-08-28T19:34:16.837Z,413.17
2022-08-28T19:36:55.270Z,390.80
2022-08-28T19:39:28.017Z,409.42
2022-08-28T19:42:00.702Z,415.67
2022-08-28T19:44:29.874Z,411.90
2022-08-28T19:46:56.682Z,403.58
2022-08-28T19:49:26.650Z,412.80
2022-08-28T19:51:55.469Z,394.58
2022-08-28T19:54:25.077Z,411.20
2022-08-28T19:56:52.108Z,395.80
2022-08-28T19:59:18.787Z,390.52
2022-08-28T20:01:46.554Z,420.75
2022-08-28T20:04:17.412Z,413.15
2022-08-28T20:06:45.390Z,433.10
2022-08-28T20:09:13.172Z,429.17
2022-08-28T20:11:42.308Z,440.52
2022-08-28T20:14:09.021Z,462.70
2022-08-28T20:16:38.839Z,427.75
2022-08-28T20:19:07.828Z,447.15
2022-08-28T20:21:37.126Z,431.58
2022-08-28T20:24:12.840Z,448.73
2022-08-28T20:26:40.228Z,421.25
2022-08-28T20:29:08.467Z,430.60
2022-08-28T20:31:40.589Z,434.55
2022-08-28T20:34:09.167Z,437.05
2022-08-28T20:36:38.572Z,415.50
2022-08-28T20:39:07.343Z,442.30
2022-08-28T20:41:35.956Z,443.13
2022-08-28T20:44:07.799Z,454.02
2022-08-28T20:46:40.442Z,469.15
2022-08-28T20:49:09.061Z,455.80
2022-08-28T20:51:53.674Z,473.92
2022-08-28T20:54:22.202Z,474.27
2022-08-28T20:56:50.665Z,506.35
2022-08-28T20:59:18.240Z,506.83
2022-08-28T21:01:45.155Z,504.65
2022-08-28T21:04:14.449Z,497.73
2022-08-28T21:06:41.590Z,469.95
2022-08-28T21:09:08.252Z,481.92
2022-08-28T21:11:34.871Z,455.83
2022-08-28T21:14:05.778Z,431.58
2022-08-28T21:16:35.435Z,461.35
2022-08-28T21:19:16.119Z,448.20
2022-08-28T21:21:46.415Z,468.10
2022-08-28T21:24:16.598Z,446.40
2022-08-28T21:26:45.607Z,445.38
2022-08-28T21:29:17.611Z,472.00
2022-08-28T21:31:45.046Z,463.55
2022-08-28T21:34:12.412Z,469.93
2022-08-28T21:36:46.911Z,456.08
2022-08-28T21:39:17.408Z,454.25
2022-08-28T21:41:44.052Z,458.25
2022-08-28T21:44:10.991Z,458.23
2022-08-28T21:46:37.899Z,462.48
2022-08-28T21:49:04.895Z,442.65
2022-08-28T21:51:33.639Z,475.85
2022-08-28T21:54:00.288Z,464.25
2022-08-28T21:56:27.828Z,466.30
2022-08-28T21:58:55.804Z,448.75
2022-08-28T22:01:26.514Z,454.55
2022-08-28T22:03:55.037Z,450.63
2022-08-28T22:06:23.779Z,446.92
2022-08-28T22:08:54.639Z,467.13
2022-08-28T22:11:25.575Z,492.37
2022-08-28T22:13:54.643Z,508.40
2022-08-28T22:16:21.952Z,460.58
2022-08-28T22:18:48.669Z,444.08
2022-08-28T22:21:35.937Z,449.77
2022-08-28T22:24:03.039Z,446.30
2022-08-28T22:26:29.807Z,455.63
2022-08-28T22:28:57.422Z,472.30
2022-08-28T22:31:25.123Z,480.85
2022-08-28T22:33:52.272Z,477.02
2022-08-28T22:36:20.225Z,495.52
2022-08-28T22:38:53.237Z,491.83
2022-08-28T22:41:20.594Z,488.27
2022-08-28T22:43:51.057Z,496.37
2022-08-28T22:46:18.919Z,484.42
2022-08-28T22:48:46.049Z,490.48
2022-08-28T22:51:15.121Z,494.67
2022-08-28T22:53:43.664Z,485.73
2022-08-28T22:56:11.711Z,495.02
2022-08-28T22:58:41.326Z,491.75
2022-08-28T23:01:12.919Z,513.25
2022-08-28T23:03:41.312Z,524.58
2022-08-28T23:06:08.209Z,495.77
2022-08-28T23:08:35.285Z,497.00
2022-08-28T23:11:02.484Z,499.48
2022-08-28T23:13:31.135Z,497.80
2022-08-28T23:15:58.212Z,491.98
2022-08-28T23:18:27.715Z,489.50
2022-08-28T23:20:55.227Z,493.10
2022-08-28T23:23:23.409Z,488.30
2022-08-28T23:25:50.566Z,494.17
2022-08-28T23:28:17.994Z,493.73
2022-08-28T23:30:48.608Z,517.25
2022-08-28T23:33:23.698Z,523.80
2022-08-28T23:35:52.083Z,496.75
2022-08-28T23:38:18.819Z,494.85
2022-08-28T23:40:46.265Z,490.25
2022-08-28T23:43:12.927Z,486.30
2022-08-28T23:45:42.122Z,485.87
2022-08-28T23:48:09.646Z,483.33
2022-08-28T23:50:40.813Z,490.63
2022-08-28T23:53:08.678Z,498.60
2022-08-28T23:55:36.776Z,507.83
2022-08-28T23:58:04.050Z,509.65
